Portada
METAR-TAF:

METAR-TAF

Aeroports :

Indianapolis, Indiana, Estats Units d'Amèrica

latitud: 40-01-50N, longitud: 086-15-05W, altitud: 281 m

Observació

L'informe es va fer fa 22 minuts, a les 23:55 UTC
Vent 15 kt del Oest amb ràfegues de 22 kt
Temperatura 18°C
Humitat 56%
Pressió 1012 hPa
Visibilitat: 16.1 km
Cel cobert a una alçada de 5000 ft

METAR: KTYQ 172355Z AUTO 28015G22KT 10SM OVC050 18/09 A2988 RMK AO2 T01770090 10210 20177

Hora: 18:17 (00:17 UTC)


TAF: manca

Observacions i pronòstics meteorològics de més de 4000 aeroports (METAR i TAF).

Les estacions disponibles són els punts grocs i vermells al mapa.

Posi el ratolí al punt desitjat per veure el nom de l'estació.

Feu clic per veure les observacions i els pronòstics meteorològics.

Per canviar el mapa: feu clic els botons verds amb una creu de color negre per apropar; al botó verd amb un guió per allunyar la imatge; o en les fletxes verdes per a mapes adjacents.


METAR-TAF: